Heber Springs, AR (72543)

6:54 AM CST on February 07, 2016 (GMT -0600)
Heber Springs WX | | Change Station
CLOSE
Current Station
Personal Weather Station
Location: Heber Springs, AR
Elevation: 541 ft
Nearby Weather Stations

Elev 541 ft 35.52 °N, 92.03 °W | Updated 15 minutes ago

Clear
Clear
27.0 °F
Feels Like 27 °F
N
0.0
Wind Variable Wind from NW

Today
High -- | Low -- °F
--% Chance of Precip.
Yesterday
High -- | Low -- °F
Precip. -- in
Pressure 30.22 in
Visibility 7.0 miles
Clouds Clear
Windchill 27 °F
Dew Point 27 °F
Humidity 99%
Rainfall 0.00 in
Snow Depth Not available.
7:03 AM 5:41 PM
Waning Crescent, 2% visible
METAR KCCA 071235Z AUTO 00000KT 7SM CLR M05/M07 A3022 RMK AO2
Pressure 30.22 in
Visibility 7.0 miles
Clouds Clear
Windchill 27 °F
Dew Point 27 °F
Humidity 99%
Rainfall 0.00 in
Snow Depth Not available.
7:03 AM 5:41 PM
Waning Crescent, 2% visible
METAR KCCA 071235Z AUTO 00000KT 7SM CLR M05/M07 A3022 RMK AO2

10-Day Weather Forecast

Almanac

Astronomy

Feb. 07, 2016 Rise Set
Actual Time
Civil Twilight
Nautical Twilight
Astronomical Twilight
Moon
Length of Visible Light
Length of Day
Tomorrow will be .
, % of the Moon is Illuminated

Today's Extremes

State Highs State Lows

Community

WunderPhotos

Upload Photos

1,891,189 photos uploaded!

WunderBlog® & News

Nearby

Air Quality

  Air Quality AQ Index Pollutant
Not available.

Snow Depth

Station Depth Elevation

Earthquake Activity

City Distance Mag. Time & Date
Minimum magnitude displayed is 2.5.

Coastal Water Temperatures

Place Temperature

Stations

Nearby Weather Stations

Station Location Temp. Windchill Dew Point Humidity Wind Precip. Elev Updated Type
                   

Watches & Warnings

There are currently no watches in effect.